createdAt,value
2019-03-08T00:00:38.359Z,997.94
2019-03-08T00:01:38.312Z,997.87
2019-03-08T00:02:38.284Z,997.98
2019-03-08T00:03:38.268Z,997.87
2019-03-08T00:04:38.243Z,997.91
2019-03-08T00:05:38.231Z,997.93
2019-03-08T00:06:38.219Z,997.94
2019-03-08T00:07:38.186Z,997.99
2019-03-08T00:08:38.176Z,998.00
2019-03-08T00:09:39.920Z,997.99
2019-03-08T00:10:38.156Z,997.99
2019-03-08T00:11:38.128Z,997.46
2019-03-08T00:12:38.079Z,998.06
2019-03-08T00:13:38.063Z,998.11
2019-03-08T00:14:38.038Z,997.94
2019-03-08T00:15:38.020Z,998.13
2019-03-08T00:16:38.005Z,998.22
2019-03-08T00:17:38.000Z,998.10
2019-03-08T00:18:37.978Z,998.13
2019-03-08T00:19:37.937Z,998.15
2019-03-08T00:20:37.915Z,998.26
2019-03-08T00:21:38.421Z,998.22
2019-03-08T00:22:37.888Z,998.36
2019-03-08T00:23:37.853Z,998.31
2019-03-08T00:24:37.842Z,998.28
2019-03-08T00:25:37.813Z,998.28
2019-03-08T00:26:37.789Z,998.28
2019-03-08T00:27:37.788Z,998.35
2019-03-08T00:28:37.753Z,998.44
2019-03-08T00:29:37.728Z,998.44
2019-03-08T00:30:37.709Z,998.48
2019-03-08T00:31:37.691Z,998.29
2019-03-08T00:32:37.687Z,998.35
2019-03-08T00:33:37.644Z,998.31
2019-03-08T00:34:37.621Z,998.38
2019-03-08T00:35:37.640Z,998.37
2019-03-08T00:36:37.584Z,998.48
2019-03-08T00:37:37.566Z,998.48
2019-03-08T00:38:37.548Z,998.54
2019-03-08T00:39:37.518Z,998.43
2019-03-08T00:40:37.503Z,998.58
2019-03-08T00:41:37.499Z,998.36
2019-03-08T00:42:37.462Z,998.57
2019-03-08T00:43:37.446Z,998.59
2019-03-08T00:44:37.419Z,998.52
2019-03-08T00:45:37.395Z,998.59
2019-03-08T00:46:37.378Z,998.74
2019-03-08T00:47:37.381Z,998.52
2019-03-08T00:48:37.332Z,998.55
2019-03-08T00:49:37.310Z,998.74
2019-03-08T00:50:37.294Z,998.57
2019-03-08T00:51:37.275Z,998.69
2019-03-08T00:52:37.244Z,998.69
2019-03-08T00:53:37.247Z,998.85
2019-03-08T00:54:37.211Z,998.51
2019-03-08T00:55:37.187Z,998.72
2019-03-08T00:56:37.190Z,998.70
2019-03-08T00:57:37.154Z,998.59
2019-03-08T00:58:37.123Z,998.76
2019-03-08T00:59:37.118Z,998.78
2019-03-08T01:00:37.089Z,998.90
2019-03-08T01:01:37.064Z,998.86
2019-03-08T01:02:37.042Z,998.91
2019-03-08T01:03:37.022Z,999.01
2019-03-08T01:04:37.023Z,998.68
2019-03-08T01:05:36.985Z,998.87
2019-03-08T01:06:36.961Z,998.92
2019-03-08T01:07:36.938Z,998.94
2019-03-08T01:08:36.979Z,999.20
2019-03-08T01:09:36.900Z,998.98
2019-03-08T01:10:36.915Z,998.96
2019-03-08T01:11:36.882Z,999.01
2019-03-08T01:12:36.835Z,998.93
2019-03-08T01:13:36.816Z,999.00
2019-03-08T01:14:36.807Z,999.12
2019-03-08T01:15:36.771Z,999.08
2019-03-08T01:16:36.751Z,999.10
2019-03-08T01:17:36.731Z,999.04
2019-03-08T01:18:36.725Z,999.12
2019-03-08T01:19:36.690Z,999.12
2019-03-08T01:20:36.670Z,999.18
2019-03-08T01:21:36.643Z,999.21
2019-03-08T01:22:36.634Z,999.33
2019-03-08T01:23:36.606Z,999.20
2019-03-08T01:24:36.599Z,999.29
2019-03-08T01:25:36.580Z,999.44
2019-03-08T01:26:36.538Z,999.36
2019-03-08T01:27:36.523Z,999.28
2019-03-08T01:28:36.502Z,999.33
2019-03-08T01:29:36.500Z,999.44
2019-03-08T01:30:36.459Z,999.25
2019-03-08T01:31:36.442Z,999.35
2019-03-08T01:32:36.435Z,999.37
2019-03-08T01:33:36.409Z,999.39
2019-03-08T01:34:36.378Z,999.41
2019-03-08T01:35:36.353Z,999.44
2019-03-08T01:36:36.330Z,999.43
2019-03-08T01:37:36.312Z,999.38
2019-03-08T01:38:36.305Z,999.44
2019-03-08T01:39:36.277Z,999.47
2019-03-08T01:40:36.252Z,999.41
2019-03-08T01:41:36.264Z,999.54
2019-03-08T01:42:36.212Z,999.56
2019-03-08T01:43:36.188Z,999.45
2019-03-08T01:44:36.179Z,999.56
2019-03-08T01:45:36.193Z,999.58
2019-03-08T01:46:36.128Z,999.63
2019-03-08T01:47:36.125Z,999.64
2019-03-08T01:48:36.088Z,999.54
2019-03-08T01:49:36.065Z,999.62
2019-03-08T01:50:36.043Z,999.58
2019-03-08T01:51:36.028Z,999.61
2019-03-08T01:52:36.023Z,999.69
2019-03-08T01:53:35.982Z,999.57
2019-03-08T01:54:35.963Z,999.47
2019-03-08T01:55:35.938Z,999.61
2019-03-08T01:56:36.018Z,999.61
2019-03-08T01:57:35.916Z,999.62
2019-03-08T01:58:35.907Z,999.75
2019-03-08T01:59:35.860Z,999.70
2019-03-08T02:00:35.924Z,999.69
2019-03-08T02:01:35.813Z,999.60
2019-03-08T02:02:35.793Z,999.69
2019-03-08T02:03:35.776Z,999.64
2019-03-08T02:04:35.781Z,999.83
2019-03-08T02:05:35.729Z,999.72
2019-03-08T02:06:35.708Z,999.84
2019-03-08T02:07:35.693Z,999.83
2019-03-08T02:08:35.667Z,999.87
2019-03-08T02:09:35.653Z,999.82
2019-03-08T02:10:35.641Z,999.84
2019-03-08T02:11:35.599Z,999.87
2019-03-08T02:12:35.583Z,999.90
2019-03-08T02:13:35.562Z,999.93
2019-03-08T02:14:35.562Z,999.86
2019-03-08T02:15:35.516Z,999.86
2019-03-08T02:16:35.498Z,999.88
2019-03-08T02:17:35.478Z,999.88
2019-03-08T02:18:35.456Z,999.96
2019-03-08T02:19:35.439Z,999.93
2019-03-08T02:20:35.440Z,999.89
2019-03-08T02:21:35.394Z,999.89
2019-03-08T02:22:35.373Z,999.87
2019-03-08T02:23:35.366Z,999.91
2019-03-08T02:24:35.333Z,999.81
2019-03-08T02:25:35.306Z,999.94
2019-03-08T02:26:35.304Z,999.94
2019-03-08T02:27:35.265Z,999.95
2019-03-08T02:28:35.248Z,1000.02
2019-03-08T02:29:35.225Z,999.92
2019-03-08T02:30:35.208Z,999.98
2019-03-08T02:31:35.198Z,999.97
2019-03-08T02:32:35.174Z,1000.00
2019-03-08T02:33:35.138Z,1000.02
2019-03-08T02:34:35.121Z,1000.04
2019-03-08T02:35:35.098Z,1000.00
2019-03-08T02:36:35.074Z,1000.02
2019-03-08T02:37:35.057Z,1000.03
2019-03-08T02:38:35.050Z,1000.03
2019-03-08T02:39:35.018Z,999.96
2019-03-08T02:40:34.991Z,999.98
2019-03-08T02:41:34.971Z,1000.04
2019-03-08T02:42:34.948Z,1000.03
2019-03-08T02:43:34.944Z,1000.12
2019-03-08T02:44:34.909Z,1000.27
2019-03-08T02:45:34.895Z,1000.13
2019-03-08T02:46:34.867Z,1000.23
2019-03-08T02:47:34.844Z,1000.15
2019-03-08T02:48:34.837Z,1000.21
2019-03-08T02:49:34.803Z,1000.22
2019-03-08T02:50:34.792Z,1000.22
2019-03-08T02:51:34.791Z,1000.23
2019-03-08T02:52:34.745Z,1000.33
2019-03-08T02:53:34.739Z,1000.31
2019-03-08T02:54:34.701Z,1000.35
2019-03-08T02:55:34.709Z,1000.45
2019-03-08T02:56:34.657Z,1000.47
2019-03-08T02:57:34.641Z,1000.62
2019-03-08T02:58:34.623Z,1000.74
2019-03-08T02:59:34.592Z,1000.74
2019-03-08T03:00:34.572Z,1000.74
2019-03-08T03:01:34.565Z,1000.77
2019-03-08T03:02:34.527Z,1000.81
2019-03-08T03:03:34.526Z,1000.81
2019-03-08T03:04:34.495Z,1000.85
2019-03-08T03:05:34.468Z,1000.83
2019-03-08T03:06:34.464Z,1000.89
2019-03-08T03:07:34.422Z,1000.85
2019-03-08T03:08:34.409Z,1000.92
2019-03-08T03:09:34.381Z,1000.83
2019-03-08T03:10:34.389Z,1000.91
2019-03-08T03:11:34.339Z,1000.87
2019-03-08T03:12:34.332Z,1000.93
2019-03-08T03:13:34.296Z,1000.92
2019-03-08T03:14:34.278Z,1000.95
2019-03-08T03:15:34.258Z,1000.97
2019-03-08T03:16:34.245Z,1000.96
2019-03-08T03:17:34.218Z,1001.01
2019-03-08T03:18:34.186Z,1001.07
2019-03-08T03:19:34.168Z,1001.07
2019-03-08T03:20:34.150Z,1001.08
2019-03-08T03:21:34.139Z,1001.11
2019-03-08T03:22:34.099Z,1001.12
2019-03-08T03:23:34.081Z,1001.17
2019-03-08T03:24:34.062Z,1001.15
2019-03-08T03:25:34.040Z,1001.16
2019-03-08T03:26:34.021Z,1001.19
2019-03-08T03:27:34.016Z,1001.26
2019-03-08T03:28:33.980Z,1001.18
2019-03-08T03:29:33.958Z,1001.26
2019-03-08T03:30:33.939Z,1001.23
2019-03-08T03:31:33.933Z,1001.31
2019-03-08T03:32:33.912Z,1001.28
2019-03-08T03:33:33.874Z,1001.28
2019-03-08T03:34:33.851Z,1001.34
2019-03-08T03:35:33.836Z,1001.31
2019-03-08T03:36:33.814Z,1001.24
2019-03-08T03:37:33.785Z,1001.25
2019-03-08T03:38:33.786Z,1001.28
2019-03-08T03:39:33.758Z,1001.28
2019-03-08T03:40:33.723Z,1001.35
2019-03-08T03:41:33.724Z,1001.39
2019-03-08T03:42:33.693Z,1001.38
2019-03-08T03:43:33.663Z,1001.41
2019-03-08T03:44:33.651Z,1001.43
2019-03-08T03:45:33.624Z,1001.49
2019-03-08T03:46:33.597Z,1001.47
2019-03-08T03:47:33.576Z,1001.50
2019-03-08T03:48:33.554Z,1001.53
2019-03-08T03:49:34.492Z,1001.60
2019-03-08T03:50:33.521Z,1001.60
2019-03-08T03:51:33.490Z,1001.56
2019-03-08T03:52:33.467Z,1001.60
2019-03-08T03:53:33.445Z,1001.61
2019-03-08T03:54:33.426Z,1001.65
2019-03-08T03:55:33.428Z,1001.63
2019-03-08T03:56:33.388Z,1001.61
2019-03-08T03:57:33.469Z,1001.65
2019-03-08T03:58:33.339Z,1001.68
2019-03-08T03:59:33.319Z,1001.70
2019-03-08T04:00:33.311Z,1001.74
2019-03-08T04:01:33.298Z,1001.74
2019-03-08T04:02:33.253Z,1001.73
2019-03-08T04:03:33.951Z,1001.77
2019-03-08T04:04:33.210Z,1001.79
2019-03-08T04:05:33.367Z,1001.81
2019-03-08T04:06:33.170Z,1001.81
2019-03-08T04:07:33.170Z,1001.86
2019-03-08T04:08:33.126Z,1001.82
2019-03-08T04:09:33.103Z,1001.84
2019-03-08T04:10:33.086Z,1001.84
2019-03-08T04:11:33.072Z,1001.92
2019-03-08T04:12:33.057Z,1001.98
2019-03-08T04:13:33.038Z,1001.93
2019-03-08T04:14:32.995Z,1001.98
2019-03-08T04:15:32.976Z,1002.06
2019-03-08T04:16:32.951Z,1002.03
2019-03-08T04:17:32.931Z,1002.02
2019-03-08T04:18:32.907Z,1002.03
2019-03-08T04:19:32.920Z,1002.03
2019-03-08T04:20:32.864Z,1002.10
2019-03-08T04:21:32.855Z,1002.11
2019-03-08T04:22:32.825Z,1002.13
2019-03-08T04:23:32.823Z,1002.17
2019-03-08T04:24:32.782Z,1002.15
2019-03-08T04:25:32.763Z,1002.19
2019-03-08T04:26:32.743Z,1002.20
2019-03-08T04:27:32.722Z,1002.23
2019-03-08T04:28:32.702Z,1002.27
2019-03-08T04:29:32.692Z,1002.31
2019-03-08T04:30:32.669Z,1002.31
2019-03-08T04:31:32.630Z,1002.30
2019-03-08T04:32:32.611Z,1002.30
2019-03-08T04:33:32.588Z,1002.35
2019-03-08T04:34:32.570Z,1002.38
2019-03-08T04:35:32.550Z,1002.38
2019-03-08T04:36:32.537Z,1002.42
2019-03-08T04:37:32.504Z,1002.46
2019-03-08T04:38:32.485Z,1002.39
2019-03-08T04:39:32.464Z,1002.45
2019-03-08T04:40:32.459Z,1002.50
2019-03-08T04:41:32.422Z,1002.48
2019-03-08T04:42:32.398Z,1002.53
2019-03-08T04:43:32.376Z,1002.52
2019-03-08T04:44:32.358Z,1002.53
2019-03-08T04:45:32.332Z,1002.56
2019-03-08T04:46:32.332Z,1002.59
2019-03-08T04:47:32.290Z,1002.63
2019-03-08T04:48:32.269Z,1002.62
2019-03-08T04:49:32.249Z,1002.63
2019-03-08T04:50:32.271Z,1002.65
2019-03-08T04:51:32.234Z,1002.65
2019-03-08T04:52:32.186Z,1002.69
2019-03-08T04:53:32.163Z,1002.68
2019-03-08T04:54:32.141Z,1002.63
2019-03-08T04:55:32.124Z,1002.65
2019-03-08T04:56:32.121Z,1002.63
2019-03-08T04:57:32.141Z,1002.67
2019-03-08T04:58:32.055Z,1002.66
2019-03-08T04:59:32.034Z,1002.70
2019-03-08T05:00:32.016Z,1002.76
2019-03-08T05:01:31.999Z,1002.77
2019-03-08T05:02:31.990Z,1002.76
2019-03-08T05:03:31.963Z,1002.78
2019-03-08T05:04:31.929Z,1002.80
2019-03-08T05:05:31.907Z,1002.80
2019-03-08T05:06:31.889Z,1002.78
2019-03-08T05:07:31.865Z,1002.84
2019-03-08T05:08:31.859Z,1002.86
2019-03-08T05:09:31.839Z,1002.82
2019-03-08T05:10:31.803Z,1002.81
2019-03-08T05:11:31.784Z,1002.85
2019-03-08T05:12:31.759Z,1002.83
2019-03-08T05:13:31.737Z,1002.84
2019-03-08T05:14:31.718Z,1002.86
2019-03-08T05:15:31.707Z,1002.87
2019-03-08T05:16:31.674Z,1002.89
2019-03-08T05:17:31.648Z,1002.91
2019-03-08T05:18:33.028Z,1002.94
2019-03-08T05:19:31.624Z,1002.97
2019-03-08T05:20:31.608Z,1002.99
2019-03-08T05:21:31.565Z,1003.02
2019-03-08T05:22:31.549Z,1003.05
2019-03-08T05:23:31.525Z,1003.04
2019-03-08T05:24:31.500Z,1003.11
2019-03-08T05:25:31.497Z,1003.14
2019-03-08T05:26:31.485Z,1003.15
2019-03-08T05:27:31.442Z,1003.18
2019-03-08T05:28:31.414Z,1003.21
2019-03-08T05:29:31.397Z,1003.27
2019-03-08T05:30:31.388Z,1003.27
2019-03-08T05:31:31.364Z,1003.28
2019-03-08T05:32:31.343Z,1003.33
2019-03-08T05:33:31.313Z,1003.36
2019-03-08T05:34:31.290Z,1003.33
2019-03-08T05:35:31.297Z,1003.39
2019-03-08T05:36:31.265Z,1003.39
2019-03-08T05:37:31.228Z,1003.42
2019-03-08T05:38:31.207Z,1003.43
2019-03-08T05:39:31.185Z,1003.47
2019-03-08T05:40:31.159Z,1003.45
2019-03-08T05:41:31.156Z,1003.46
2019-03-08T05:42:31.118Z,1003.53
2019-03-08T05:43:31.096Z,1003.56
2019-03-08T05:44:31.086Z,1003.63
2019-03-08T05:45:31.083Z,1003.69
2019-03-08T05:46:31.030Z,1003.72
2019-03-08T05:47:31.011Z,1003.71
2019-03-08T05:48:30.988Z,1003.73
2019-03-08T05:49:30.969Z,1003.77
2019-03-08T05:50:30.946Z,1003.81
2019-03-08T05:51:30.939Z,1003.82
2019-03-08T05:52:30.905Z,1003.82
2019-03-08T05:53:30.897Z,1003.86
2019-03-08T05:54:30.861Z,1003.87
2019-03-08T05:55:30.839Z,1003.90
2019-03-08T05:56:30.822Z,1003.95
2019-03-08T05:57:30.797Z,1003.97
2019-03-08T05:58:30.896Z,1004.00
2019-03-08T05:59:30.756Z,1003.94
2019-03-08T06:00:32.873Z,1004.03
2019-03-08T06:01:30.719Z,1004.04
2019-03-08T06:02:30.693Z,1004.07
2019-03-08T06:03:30.675Z,1004.12
2019-03-08T06:04:30.663Z,1004.10
2019-03-08T06:05:30.626Z,1004.15
2019-03-08T06:06:30.611Z,1004.17
2019-03-08T06:07:30.585Z,1004.20
2019-03-08T06:08:30.579Z,1004.26
2019-03-08T06:09:30.539Z,1004.30
2019-03-08T06:10:30.540Z,1004.29
2019-03-08T06:11:30.499Z,1004.31
2019-03-08T06:12:30.474Z,1004.37
2019-03-08T06:13:30.472Z,1004.40
2019-03-08T06:14:30.436Z,1004.42
2019-03-08T06:15:30.416Z,1004.45
2019-03-08T06:16:30.408Z,1004.50
2019-03-08T06:17:30.377Z,1004.60
2019-03-08T06:18:30.358Z,1004.61
2019-03-08T06:19:30.331Z,1004.65
2019-03-08T06:20:30.328Z,1004.65
2019-03-08T06:21:30.307Z,1004.66
2019-03-08T06:22:30.270Z,1004.69
2019-03-08T06:23:30.251Z,1004.73
2019-03-08T06:24:30.226Z,1004.71
2019-03-08T06:25:30.204Z,1004.77
2019-03-08T06:26:30.182Z,1004.80
2019-03-08T06:27:30.175Z,1004.84
2019-03-08T06:28:30.134Z,1004.87
2019-03-08T06:29:30.139Z,1004.91
2019-03-08T06:30:30.102Z,1004.92
2019-03-08T06:31:30.080Z,1004.93
2019-03-08T06:32:30.068Z,1005.05
2019-03-08T06:33:30.031Z,1005.02
2019-03-08T06:34:30.012Z,1005.05
2019-03-08T06:35:29.988Z,1005.07
2019-03-08T06:36:29.968Z,1005.12
2019-03-08T06:37:29.944Z,1005.20
2019-03-08T06:38:29.941Z,1005.19
2019-03-08T06:39:29.908Z,1005.20
2019-03-08T06:40:29.895Z,1005.22
2019-03-08T06:41:29.861Z,1005.24
2019-03-08T06:42:29.876Z,1005.30
2019-03-08T06:43:29.823Z,1005.35
2019-03-08T06:44:29.798Z,1005.31
2019-03-08T06:45:29.774Z,1005.34
2019-03-08T06:46:29.753Z,1005.40
2019-03-08T06:47:29.731Z,1005.43
2019-03-08T06:48:29.731Z,1005.44
2019-03-08T06:49:29.692Z,1005.46
2019-03-08T06:50:29.666Z,1005.52
2019-03-08T06:51:29.647Z,1005.59
2019-03-08T06:52:29.629Z,1005.60
2019-03-08T06:53:29.604Z,1005.62
2019-03-08T06:54:29.603Z,1005.61
2019-03-08T06:55:29.569Z,1005.67
2019-03-08T06:56:29.547Z,1005.71
2019-03-08T06:57:29.526Z,1005.74
2019-03-08T06:58:29.503Z,1005.79
2019-03-08T06:59:29.478Z,1005.79
2019-03-08T07:00:29.477Z,1005.83
2019-03-08T07:01:29.435Z,1005.83
2019-03-08T07:02:30.253Z,1005.87
2019-03-08T07:03:29.393Z,1005.80
2019-03-08T07:04:29.382Z,1005.83
2019-03-08T07:05:29.365Z,1005.90
2019-03-08T07:06:29.347Z,1005.94
2019-03-08T07:07:29.308Z,1005.95
2019-03-08T07:08:29.286Z,1005.94
2019-03-08T07:09:29.261Z,1006.02
2019-03-08T07:10:29.239Z,1006.05
2019-03-08T07:11:29.240Z,1006.08
2019-03-08T07:12:29.203Z,1006.11
2019-03-08T07:13:29.193Z,1006.12
2019-03-08T07:14:29.161Z,1006.16
2019-03-08T07:15:29.140Z,1006.20
2019-03-08T07:16:29.134Z,1006.24
2019-03-08T07:17:29.095Z,1006.22
2019-03-08T07:18:29.084Z,1006.26
2019-03-08T07:19:29.057Z,1006.35
2019-03-08T07:20:29.031Z,1006.40
2019-03-08T07:21:29.014Z,1006.42
2019-03-08T07:22:29.014Z,1006.39
2019-03-08T07:23:28.966Z,1006.46
2019-03-08T07:24:28.975Z,1006.46
2019-03-08T07:25:28.928Z,1006.48
2019-03-08T07:26:28.911Z,1006.56
2019-03-08T07:27:28.905Z,1006.65
2019-03-08T07:28:28.866Z,1006.67
2019-03-08T07:29:28.861Z,1006.70
2019-03-08T07:30:28.823Z,1006.68
2019-03-08T07:31:28.813Z,1006.74
2019-03-08T07:32:28.789Z,1006.75
2019-03-08T07:33:28.779Z,1006.75
2019-03-08T07:34:28.744Z,1006.78
2019-03-08T07:35:28.724Z,1006.81
2019-03-08T07:36:28.692Z,1006.83
2019-03-08T07:37:28.677Z,1006.87
2019-03-08T07:38:28.659Z,1006.91
2019-03-08T07:39:28.659Z,1006.93
2019-03-08T07:40:28.612Z,1006.93
2019-03-08T07:41:29.004Z,1006.99
2019-03-08T07:42:28.569Z,1007.02
2019-03-08T07:43:28.557Z,1007.05
2019-03-08T07:44:28.553Z,1007.09
2019-03-08T07:45:28.522Z,1007.13
2019-03-08T07:46:28.485Z,1007.18
2019-03-08T07:47:28.474Z,1007.17
2019-03-08T07:48:28.454Z,1007.17
2019-03-08T07:49:28.446Z,1007.20
2019-03-08T07:50:28.409Z,1007.20
2019-03-08T07:51:28.389Z,1007.19
2019-03-08T07:52:28.368Z,1007.21
2019-03-08T07:53:28.350Z,1007.27
2019-03-08T07:54:28.323Z,1007.27
2019-03-08T07:55:28.313Z,1007.27
2019-03-08T07:56:28.290Z,1007.29
2019-03-08T07:57:28.256Z,1007.35
2019-03-08T07:58:28.234Z,1007.46
2019-03-08T07:59:28.217Z,1007.44
2019-03-08T08:00:28.215Z,1007.45
2019-03-08T08:01:28.197Z,1007.47
2019-03-08T08:02:28.160Z,1007.48
2019-03-08T08:03:28.130Z,1007.41
2019-03-08T08:04:28.108Z,1007.43
2019-03-08T08:05:28.089Z,1007.51
2019-03-08T08:06:28.067Z,1007.45
2019-03-08T08:07:28.062Z,1007.46
2019-03-08T08:08:28.033Z,1007.58
2019-03-08T08:09:27.996Z,1007.56
2019-03-08T08:10:27.985Z,1007.58
2019-03-08T08:11:27.963Z,1007.61
2019-03-08T08:12:27.945Z,1007.62
2019-03-08T08:13:27.948Z,1007.67
2019-03-08T08:14:27.904Z,1007.71
2019-03-08T08:15:27.880Z,1007.73
2019-03-08T08:16:27.854Z,1007.72
2019-03-08T08:17:27.842Z,1007.73
2019-03-08T08:18:27.814Z,1007.75
2019-03-08T08:19:27.823Z,1007.75
2019-03-08T08:20:27.774Z,1007.82
2019-03-08T08:21:27.754Z,1007.79
2019-03-08T08:22:27.747Z,1007.94
2019-03-08T08:23:34.098Z,1008.03
2019-03-08T08:24:27.689Z,1008.06
2019-03-08T08:25:36.289Z,1008.04
2019-03-08T08:26:27.668Z,1008.06
2019-03-08T08:27:27.638Z,1008.11
2019-03-08T08:28:27.720Z,1008.17
2019-03-08T08:29:34.730Z,1008.15
2019-03-08T08:30:27.617Z,1008.12
2019-03-08T08:31:27.551Z,1008.10
2019-03-08T08:32:27.530Z,1008.11
2019-03-08T08:33:27.510Z,1008.16
2019-03-08T08:34:27.492Z,1008.12
2019-03-08T08:35:27.505Z,1008.11
2019-03-08T08:36:27.467Z,1008.16
2019-03-08T08:37:27.430Z,1008.18
2019-03-08T08:38:27.411Z,1008.16
2019-03-08T08:39:27.394Z,1008.15
2019-03-08T08:40:27.386Z,1008.19
2019-03-08T08:41:27.372Z,1008.26
2019-03-08T08:42:27.328Z,1008.29
2019-03-08T08:43:27.306Z,1008.33
2019-03-08T08:44:27.287Z,1008.31
2019-03-08T08:45:27.274Z,1008.30
2019-03-08T08:46:27.250Z,1008.28
2019-03-08T08:47:27.248Z,1008.27
2019-03-08T08:48:27.204Z,1008.35
2019-03-08T08:49:27.184Z,1008.32
2019-03-08T08:50:27.167Z,1008.29
2019-03-08T08:51:27.146Z,1008.30
2019-03-08T08:52:27.135Z,1008.37
2019-03-08T08:53:27.155Z,1008.37
2019-03-08T08:54:27.081Z,1008.37
2019-03-08T08:55:27.064Z,1008.38
2019-03-08T08:56:27.046Z,1008.31
2019-03-08T08:57:27.021Z,1008.36
2019-03-08T08:58:27.067Z,1008.47
2019-03-08T08:59:26.984Z,1008.46
2019-03-08T09:00:26.962Z,1008.57
2019-03-08T09:01:26.954Z,1008.56
2019-03-08T09:02:26.923Z,1008.59
2019-03-08T09:03:26.904Z,1008.64
2019-03-08T09:04:26.894Z,1008.61
2019-03-08T09:05:26.853Z,1008.73
2019-03-08T09:06:26.840Z,1008.75
2019-03-08T09:07:26.816Z,1008.75
2019-03-08T09:08:26.830Z,1008.79
2019-03-08T09:09:26.778Z,1008.78
2019-03-08T09:10:26.776Z,1008.64
2019-03-08T09:11:26.737Z,1008.73
2019-03-08T09:12:26.716Z,1008.81
2019-03-08T09:13:26.703Z,1008.72
2019-03-08T09:14:26.685Z,1008.70
2019-03-08T09:15:26.658Z,1008.76
2019-03-08T09:16:26.649Z,1008.81
2019-03-08T09:17:26.616Z,1008.83
2019-03-08T09:18:26.618Z,1008.86
2019-03-08T09:19:26.587Z,1008.79
2019-03-08T09:20:26.558Z,1008.74
2019-03-08T09:21:26.533Z,1008.83
2019-03-08T09:22:26.517Z,1008.85
2019-03-08T09:23:26.499Z,1008.85
2019-03-08T09:24:26.497Z,1008.91
2019-03-08T09:25:26.458Z,1008.92
2019-03-08T09:26:26.440Z,1008.97
2019-03-08T09:27:26.420Z,1009.01
2019-03-08T09:28:26.424Z,1009.03
2019-03-08T09:29:26.386Z,1009.05
2019-03-08T09:30:26.362Z,1009.02
2019-03-08T09:31:26.336Z,1009.08
2019-03-08T09:32:26.333Z,1009.11
2019-03-08T09:33:26.327Z,1009.13
2019-03-08T09:34:26.304Z,1009.08
2019-03-08T09:35:26.267Z,1009.16
2019-03-08T09:36:26.247Z,1009.14
2019-03-08T09:37:26.227Z,1009.11
2019-03-08T09:38:26.208Z,1009.08
2019-03-08T09:39:26.202Z,1009.18
2019-03-08T09:40:26.167Z,1009.27
2019-03-08T09:41:26.170Z,1009.16
2019-03-08T09:42:26.132Z,1009.25
2019-03-08T09:43:26.115Z,1009.27
2019-03-08T09:44:26.089Z,1009.36
2019-03-08T09:45:26.067Z,1009.36
2019-03-08T09:46:26.071Z,1009.44
2019-03-08T09:47:26.032Z,1009.40
2019-03-08T09:48:26.024Z,1009.36
2019-03-08T09:49:25.994Z,1009.42
2019-03-08T09:50:25.969Z,1009.44
2019-03-08T09:51:25.975Z,1009.52
2019-03-08T09:52:26.569Z,1009.50
2019-03-08T09:53:25.915Z,1009.57
2019-03-08T09:54:25.900Z,1009.58
2019-03-08T09:55:25.880Z,1009.58
2019-03-08T09:56:25.863Z,1009.51
2019-03-08T09:57:25.863Z,1009.61
2019-03-08T09:58:25.994Z,1009.57
2019-03-08T09:59:27.411Z,1009.57
2019-03-08T10:00:25.945Z,1009.55
2019-03-08T10:01:25.757Z,1009.57
2019-03-08T10:02:25.763Z,1009.62
2019-03-08T10:03:25.726Z,1009.57
2019-03-08T10:04:25.707Z,1009.56
2019-03-08T10:05:25.686Z,1009.58
2019-03-08T10:06:25.698Z,1009.57
2019-03-08T10:07:25.650Z,1009.67
2019-03-08T10:08:25.824Z,1009.70
2019-03-08T10:09:25.602Z,1009.74
2019-03-08T10:10:25.691Z,1009.73
2019-03-08T10:11:25.570Z,1009.77
2019-03-08T10:12:25.545Z,1009.82
2019-03-08T10:13:25.532Z,1009.81
2019-03-08T10:14:25.571Z,1009.77
2019-03-08T10:15:25.501Z,1009.83
2019-03-08T10:16:25.618Z,1009.80
2019-03-08T10:17:25.467Z,1009.84
2019-03-08T10:18:25.435Z,1009.90
2019-03-08T10:19:25.419Z,1009.83
2019-03-08T10:20:25.416Z,1009.87
2019-03-08T10:21:25.380Z,1009.86
2019-03-08T10:22:25.361Z,1009.87
2019-03-08T10:23:25.343Z,1009.79
2019-03-08T10:24:25.324Z,1009.94
2019-03-08T10:25:25.320Z,1009.83
2019-03-08T10:26:25.290Z,1009.85
2019-03-08T10:27:25.277Z,1009.92
2019-03-08T10:28:25.248Z,1009.97
2019-03-08T10:29:25.221Z,1010.02
2019-03-08T10:30:25.256Z,1010.14
2019-03-08T10:31:25.187Z,1010.17
2019-03-08T10:32:25.175Z,1010.11
2019-03-08T10:33:25.149Z,1010.14
2019-03-08T10:34:25.151Z,1010.20
2019-03-08T10:35:25.117Z,1010.19
2019-03-08T10:36:25.108Z,1010.23
2019-03-08T10:37:25.072Z,1010.16
2019-03-08T10:38:25.062Z,1010.21
2019-03-08T10:39:25.037Z,1010.29
2019-03-08T10:40:25.009Z,1010.30
2019-03-08T10:41:25.015Z,1010.35
2019-03-08T10:42:24.989Z,1010.39
2019-03-08T10:43:24.959Z,1010.32
2019-03-08T10:44:24.938Z,1010.39
2019-03-08T10:45:24.919Z,1010.44
2019-03-08T10:46:24.927Z,1010.43
2019-03-08T10:47:24.884Z,1010.50
2019-03-08T10:48:24.871Z,1010.47
2019-03-08T10:49:24.858Z,1010.49
2019-03-08T10:50:24.822Z,1010.44
2019-03-08T10:51:24.806Z,1010.45
2019-03-08T10:52:24.806Z,1010.43
2019-03-08T10:53:24.770Z,1010.47
2019-03-08T10:54:24.780Z,1010.46
2019-03-08T10:55:24.735Z,1010.50
2019-03-08T10:56:24.716Z,1010.59
2019-03-08T10:57:24.699Z,1010.46
2019-03-08T10:58:24.683Z,1010.46
2019-03-08T10:59:24.666Z,1010.49
2019-03-08T11:00:24.660Z,1010.56
2019-03-08T11:01:24.627Z,1010.60
2019-03-08T11:02:24.616Z,1010.64
2019-03-08T11:03:24.602Z,1010.61
2019-03-08T11:04:24.571Z,1010.56
2019-03-08T11:05:24.567Z,1010.65
2019-03-08T11:06:24.551Z,1010.59
2019-03-08T11:07:24.516Z,1010.60
2019-03-08T11:08:29.744Z,1010.62
2019-03-08T11:09:24.485Z,1010.64
2019-03-08T11:10:24.476Z,1010.69
2019-03-08T11:11:24.458Z,1010.71
2019-03-08T11:12:24.439Z,1010.77
2019-03-08T11:13:24.399Z,1010.82
2019-03-08T11:14:24.386Z,1010.82
2019-03-08T11:15:24.952Z,1010.86
2019-03-08T11:16:25.015Z,1010.90
2019-03-08T11:17:24.345Z,1010.87
2019-03-08T11:18:24.314Z,1010.91
2019-03-08T11:19:24.283Z,1010.92
2019-03-08T11:20:24.267Z,1010.85
2019-03-08T11:21:24.248Z,1010.84
2019-03-08T11:22:24.251Z,1010.88
2019-03-08T11:23:24.213Z,1010.83
2019-03-08T11:24:24.192Z,1010.91
2019-03-08T11:25:24.189Z,1010.95
2019-03-08T11:26:24.172Z,1010.91
2019-03-08T11:27:24.163Z,1010.83
2019-03-08T11:28:24.123Z,1010.91
2019-03-08T11:29:24.127Z,1010.93
2019-03-08T11:30:24.097Z,1010.96
2019-03-08T11:31:24.079Z,1010.94
2019-03-08T11:32:24.087Z,1010.88
2019-03-08T11:33:24.047Z,1010.82
2019-03-08T11:34:25.460Z,1010.84
2019-03-08T11:35:24.021Z,1010.89
2019-03-08T11:36:24.001Z,1010.91
2019-03-08T11:37:23.985Z,1010.91
2019-03-08T11:38:23.964Z,1010.88
2019-03-08T11:39:23.974Z,1010.96
2019-03-08T11:40:23.935Z,1011.08
2019-03-08T11:41:23.915Z,1011.18
2019-03-08T11:42:23.903Z,1011.21
2019-03-08T11:43:23.882Z,1011.21
2019-03-08T11:44:23.889Z,1011.16
2019-03-08T11:45:23.867Z,1011.07
2019-03-08T11:46:23.837Z,1011.15
2019-03-08T11:47:23.823Z,1011.05
2019-03-08T11:48:23.819Z,1011.17
2019-03-08T11:49:23.790Z,1011.06
2019-03-08T11:50:23.776Z,1011.03
2019-03-08T11:51:23.795Z,1011.10
2019-03-08T11:52:23.747Z,1011.05
2019-03-08T11:53:23.730Z,1011.12
2019-03-08T11:54:23.727Z,1011.09
2019-03-08T11:55:23.686Z,1011.17
2019-03-08T11:56:23.689Z,1011.10
2019-03-08T11:57:23.674Z,1011.08
2019-03-08T11:58:23.657Z,1011.07
2019-03-08T11:59:23.632Z,1011.15
2019-03-08T12:00:23.612Z,1011.15
2019-03-08T12:01:23.596Z,1011.17
2019-03-08T12:02:23.599Z,1011.04
2019-03-08T12:03:23.568Z,1011.06
2019-03-08T12:04:23.548Z,1011.08
2019-03-08T12:05:23.537Z,1011.09
2019-03-08T12:06:23.522Z,1011.13
2019-03-08T12:07:23.526Z,1011.23
2019-03-08T12:08:23.486Z,1011.31
2019-03-08T12:09:23.479Z,1011.30
2019-03-08T12:10:23.459Z,1011.26